sensor_id;sensor_type;location;lat;lon;timestamp;temperature;humidity
18712;DHT22;9485;49.386;8.674;2024-02-15T00:03:04;15.00;99.90
18712;DHT22;9485;49.386;8.674;2024-02-15T00:08:25;15.00;99.90
18712;DHT22;9485;49.386;8.674;2024-02-15T00:13:48;15.00;99.90
18712;DHT22;9485;49.386;8.674;2024-02-15T00:19:09;15.00;99.90
18712;DHT22;9485;49.386;8.674;2024-02-15T00:24:29;15.00;99.90
18712;DHT22;9485;49.386;8.674;2024-02-15T00:29:52;15.00;99.90
18712;DHT22;9485;49.386;8.674;2024-02-15T00:35:13;15.00;99.90
18712;DHT22;9485;49.386;8.674;2024-02-15T00:40:33;15.00;99.90
18712;DHT22;9485;49.386;8.674;2024-02-15T00:45:56;14.90;99.90
18712;DHT22;9485;49.386;8.674;2024-02-15T00:51:17;15.00;99.90
18712;DHT22;9485;49.386;8.674;2024-02-15T00:56:37;14.90;99.90
18712;DHT22;9485;49.386;8.674;2024-02-15T01:02:00;14.90;99.90
18712;DHT22;9485;49.386;8.674;2024-02-15T01:07:21;14.90;99.90
18712;DHT22;9485;49.386;8.674;2024-02-15T01:12:46;14.80;99.90
18712;DHT22;9485;49.386;8.674;2024-02-15T01:18:09;14.80;99.90
18712;DHT22;9485;49.386;8.674;2024-02-15T01:23:30;14.80;99.90
18712;DHT22;9485;49.386;8.674;2024-02-15T01:28:50;14.80;99.90
18712;DHT22;9485;49.386;8.674;2024-02-15T01:34:13;14.80;99.90
18712;DHT22;9485;49.386;8.674;2024-02-15T01:39:33;14.80;99.90
18712;DHT22;9485;49.386;8.674;2024-02-15T01:44:54;14.80;99.90
18712;DHT22;9485;49.386;8.674;2024-02-15T01:50:17;14.80;99.90
18712;DHT22;9485;49.386;8.674;2024-02-15T01:55:38;14.80;99.90
18712;DHT22;9485;49.386;8.674;2024-02-15T02:01:00;14.80;99.90
18712;DHT22;9485;49.386;8.674;2024-02-15T02:06:23;14.90;99.90
18712;DHT22;9485;49.386;8.674;2024-02-15T02:11:45;14.90;99.90
18712;DHT22;9485;49.386;8.674;2024-02-15T02:17:11;14.90;99.90
18712;DHT22;9485;49.386;8.674;2024-02-15T02:22:34;14.90;99.90
18712;DHT22;9485;49.386;8.674;2024-02-15T02:27:57;14.90;99.90
18712;DHT22;9485;49.386;8.674;2024-02-15T02:33:18;14.90;99.90
18712;DHT22;9485;49.386;8.674;2024-02-15T02:38:41;14.90;99.90
18712;DHT22;9485;49.386;8.674;2024-02-15T02:44:05;14.90;99.90
18712;DHT22;9485;49.386;8.674;2024-02-15T02:49:26;14.80;99.90
18712;DHT22;9485;49.386;8.674;2024-02-15T02:54:47;14.80;99.90
18712;DHT22;9485;49.386;8.674;2024-02-15T03:00:10;14.80;99.90
18712;DHT22;9485;49.386;8.674;2024-02-15T03:05:35;14.80;99.90
18712;DHT22;9485;49.386;8.674;2024-02-15T03:10:55;14.80;99.90
18712;DHT22;9485;49.386;8.674;2024-02-15T03:16:22;14.80;99.90
18712;DHT22;9485;49.386;8.674;2024-02-15T03:21:44;14.80;99.90
18712;DHT22;9485;49.386;8.674;2024-02-15T03:27:05;14.90;99.90
18712;DHT22;9485;49.386;8.674;2024-02-15T03:32:27;14.90;99.90
18712;DHT22;9485;49.386;8.674;2024-02-15T03:37:48;14.90;99.90
18712;DHT22;9485;49.386;8.674;2024-02-15T03:43:10;14.90;99.90
18712;DHT22;9485;49.386;8.674;2024-02-15T03:48:32;14.90;99.90
18712;DHT22;9485;49.386;8.674;2024-02-15T03:53:52;14.90;99.90
18712;DHT22;9485;49.386;8.674;2024-02-15T03:59:13;15.00;99.90
18712;DHT22;9485;49.386;8.674;2024-02-15T04:04:35;15.00;99.90
18712;DHT22;9485;49.386;8.674;2024-02-15T04:09:56;15.00;99.90
18712;DHT22;9485;49.386;8.674;2024-02-15T04:15:18;15.00;99.90
18712;DHT22;9485;49.386;8.674;2024-02-15T04:20:41;15.00;99.90
18712;DHT22;9485;49.386;8.674;2024-02-15T04:26:04;14.90;99.90
18712;DHT22;9485;49.386;8.674;2024-02-15T04:31:24;14.90;99.90
18712;DHT22;9485;49.386;8.674;2024-02-15T04:36:48;14.80;99.90
18712;DHT22;9485;49.386;8.674;2024-02-15T04:42:09;14.80;99.90
18712;DHT22;9485;49.386;8.674;2024-02-15T04:47:31;14.80;99.90
18712;DHT22;9485;49.386;8.674;2024-02-15T04:52:53;14.80;99.90
18712;DHT22;9485;49.386;8.674;2024-02-15T04:58:14;14.90;99.90
18712;DHT22;9485;49.386;8.674;2024-02-15T05:03:34;14.90;99.90
18712;DHT22;9485;49.386;8.674;2024-02-15T05:08:57;14.90;99.90
18712;DHT22;9485;49.386;8.674;2024-02-15T05:14:19;14.90;99.90
18712;DHT22;9485;49.386;8.674;2024-02-15T05:19:40;14.90;99.90
18712;DHT22;9485;49.386;8.674;2024-02-15T05:25:02;14.90;99.90
18712;DHT22;9485;49.386;8.674;2024-02-15T05:30:25;14.90;99.90
18712;DHT22;9485;49.386;8.674;2024-02-15T05:35:45;14.90;99.90
18712;DHT22;9485;49.386;8.674;2024-02-15T05:41:10;14.90;99.90
18712;DHT22;9485;49.386;8.674;2024-02-15T05:46:31;15.00;99.90
18712;DHT22;9485;49.386;8.674;2024-02-15T05:51:56;15.00;99.90
18712;DHT22;9485;49.386;8.674;2024-02-15T05:57:18;15.00;99.90
18712;DHT22;9485;49.386;8.674;2024-02-15T06:02:39;15.10;99.90
18712;DHT22;9485;49.386;8.674;2024-02-15T06:08:00;15.10;99.90
18712;DHT22;9485;49.386;8.674;2024-02-15T06:13:23;15.10;99.90
18712;DHT22;9485;49.386;8.674;2024-02-15T06:18:44;15.10;99.90
18712;DHT22;9485;49.386;8.674;2024-02-15T06:24:07;15.10;99.90
18712;DHT22;9485;49.386;8.674;2024-02-15T06:29:29;15.10;99.90
18712;DHT22;9485;49.386;8.674;2024-02-15T06:35:08;15.20;99.90
18712;DHT22;9485;49.386;8.674;2024-02-15T06:40:47;15.20;99.90
18712;DHT22;9485;49.386;8.674;2024-02-15T06:46:09;15.20;99.90
18712;DHT22;9485;49.386;8.674;2024-02-15T06:51:30;15.20;99.90
18712;DHT22;9485;49.386;8.674;2024-02-15T06:56:51;15.20;99.90
18712;DHT22;9485;49.386;8.674;2024-02-15T07:02:14;15.20;99.90
18712;DHT22;9485;49.386;8.674;2024-02-15T07:07:35;15.20;99.90
18712;DHT22;9485;49.386;8.674;2024-02-15T07:12:57;15.20;99.90
18712;DHT22;9485;49.386;8.674;2024-02-15T07:18:20;15.30;99.90
18712;DHT22;9485;49.386;8.674;2024-02-15T07:23:41;15.30;99.90
18712;DHT22;9485;49.386;8.674;2024-02-15T07:29:02;15.30;99.90
18712;DHT22;9485;49.386;8.674;2024-02-15T07:34:26;15.40;99.90
18712;DHT22;9485;49.386;8.674;2024-02-15T07:39:47;15.50;99.90
18712;DHT22;9485;49.386;8.674;2024-02-15T07:45:07;15.50;99.90
18712;DHT22;9485;49.386;8.674;2024-02-15T07:50:32;15.60;99.90
18712;DHT22;9485;49.386;8.674;2024-02-15T07:55:56;15.60;99.90
18712;DHT22;9485;49.386;8.674;2024-02-15T08:01:17;15.70;99.90
18712;DHT22;9485;49.386;8.674;2024-02-15T08:06:41;15.80;99.90
18712;DHT22;9485;49.386;8.674;2024-02-15T08:12:02;15.90;99.90
18712;DHT22;9485;49.386;8.674;2024-02-15T08:17:22;16.00;99.90
18712;DHT22;9485;49.386;8.674;2024-02-15T08:22:46;16.10;99.90
18712;DHT22;9485;49.386;8.674;2024-02-15T08:28:08;16.10;99.90
18712;DHT22;9485;49.386;8.674;2024-02-15T08:33:28;16.10;99.90
18712;DHT22;9485;49.386;8.674;2024-02-15T08:38:51;16.20;99.90
18712;DHT22;9485;49.386;8.674;2024-02-15T08:44:13;16.20;99.90
18712;DHT22;9485;49.386;8.674;2024-02-15T08:49:36;16.30;99.90
18712;DHT22;9485;49.386;8.674;2024-02-15T08:55:00;16.40;99.90
18712;DHT22;9485;49.386;8.674;2024-02-15T09:00:21;16.70;99.90
18712;DHT22;9485;49.386;8.674;2024-02-15T09:05:42;16.90;99.90
18712;DHT22;9485;49.386;8.674;2024-02-15T09:11:04;17.30;99.90
18712;DHT22;9485;49.386;8.674;2024-02-15T09:16:24;17.90;99.90
18712;DHT22;9485;49.386;8.674;2024-02-15T09:21:45;18.80;99.90
18712;DHT22;9485;49.386;8.674;2024-02-15T09:27:07;19.90;99.90
18712;DHT22;9485;49.386;8.674;2024-02-15T09:32:31;21.10;99.90
18712;DHT22;9485;49.386;8.674;2024-02-15T09:37:54;22.20;99.90
18712;DHT22;9485;49.386;8.674;2024-02-15T09:43:17;23.20;99.90
18712;DHT22;9485;49.386;8.674;2024-02-15T09:48:39;24.00;99.90
18712;DHT22;9485;49.386;8.674;2024-02-15T09:54:04;24.60;99.90
18712;DHT22;9485;49.386;8.674;2024-02-15T09:59:29;25.20;99.20
18712;DHT22;9485;49.386;8.674;2024-02-15T10:04:50;25.60;97.40
18712;DHT22;9485;49.386;8.674;2024-02-15T10:10:17;25.90;96.20
18712;DHT22;9485;49.386;8.674;2024-02-15T10:15:40;26.00;93.90
18712;DHT22;9485;49.386;8.674;2024-02-15T10:21:02;26.00;93.90
18712;DHT22;9485;49.386;8.674;2024-02-15T10:26:23;26.00;93.60
18712;DHT22;9485;49.386;8.674;2024-02-15T10:31:54;25.80;91.80
18712;DHT22;9485;49.386;8.674;2024-02-15T10:37:16;25.40;87.10
18712;DHT22;9485;49.386;8.674;2024-02-15T10:42:39;24.80;90.10
18712;DHT22;9485;49.386;8.674;2024-02-15T10:48:05;24.40;90.70
18712;DHT22;9485;49.386;8.674;2024-02-15T10:53:27;24.10;90.90
18712;DHT22;9485;49.386;8.674;2024-02-15T10:58:50;23.90;91.50
18712;DHT22;9485;49.386;8.674;2024-02-15T11:04:20;23.70;92.30
18712;DHT22;9485;49.386;8.674;2024-02-15T11:09:44;23.70;91.50
18712;DHT22;9485;49.386;8.674;2024-02-15T11:15:06;23.60;92.30
18712;DHT22;9485;49.386;8.674;2024-02-15T11:20:47;23.30;91.50
18712;DHT22;9485;49.386;8.674;2024-02-15T11:26:16;23.00;90.00
18712;DHT22;9485;49.386;8.674;2024-02-15T11:32:07;22.90;92.20
18712;DHT22;9485;49.386;8.674;2024-02-15T11:37:50;22.80;92.90
18712;DHT22;9485;49.386;8.674;2024-02-15T11:43:45;22.70;91.10
18712;DHT22;9485;49.386;8.674;2024-02-15T11:49:17;22.60;90.80
18712;DHT22;9485;49.386;8.674;2024-02-15T11:54:39;22.50;92.90
18712;DHT22;9485;49.386;8.674;2024-02-15T12:00:01;22.40;92.80
18712;DHT22;9485;49.386;8.674;2024-02-15T12:05:52;22.20;92.10
18712;DHT22;9485;49.386;8.674;2024-02-15T12:11:32;22.00;92.80
18712;DHT22;9485;49.386;8.674;2024-02-15T12:17:13;21.90;93.70
18712;DHT22;9485;49.386;8.674;2024-02-15T12:22:52;21.80;93.20
18712;DHT22;9485;49.386;8.674;2024-02-15T12:28:14;21.80;94.20
18712;DHT22;9485;49.386;8.674;2024-02-15T12:33:36;21.70;93.40
18712;DHT22;9485;49.386;8.674;2024-02-15T12:39:00;21.60;93.60
18712;DHT22;9485;49.386;8.674;2024-02-15T12:44:29;21.60;93.30
18712;DHT22;9485;49.386;8.674;2024-02-15T12:49:54;21.50;94.50
18712;DHT22;9485;49.386;8.674;2024-02-15T12:55:16;21.50;94.10
18712;DHT22;9485;49.386;8.674;2024-02-15T13:00:38;21.50;94.50
18712;DHT22;9485;49.386;8.674;2024-02-15T13:06:01;21.50;94.70
18712;DHT22;9485;49.386;8.674;2024-02-15T13:11:22;21.50;93.80
18712;DHT22;9485;49.386;8.674;2024-02-15T13:16:45;21.40;94.30
18712;DHT22;9485;49.386;8.674;2024-02-15T13:22:08;21.40;94.40
18712;DHT22;9485;49.386;8.674;2024-02-15T13:27:29;21.30;93.90
18712;DHT22;9485;49.386;8.674;2024-02-15T13:32:50;21.20;94.20
18712;DHT22;9485;49.386;8.674;2024-02-15T13:38:12;21.10;94.20
18712;DHT22;9485;49.386;8.674;2024-02-15T13:43:41;21.00;93.90
18712;DHT22;9485;49.386;8.674;2024-02-15T13:49:02;21.00;94.50
18712;DHT22;9485;49.386;8.674;2024-02-15T13:54:24;20.90;94.50
18712;DHT22;9485;49.386;8.674;2024-02-15T13:59:44;20.80;94.00
18712;DHT22;9485;49.386;8.674;2024-02-15T14:05:05;20.80;94.70
18712;DHT22;9485;49.386;8.674;2024-02-15T14:10:30;20.70;94.80
18712;DHT22;9485;49.386;8.674;2024-02-15T14:15:53;20.70;94.00
18712;DHT22;9485;49.386;8.674;2024-02-15T14:21:14;20.70;94.90
18712;DHT22;9485;49.386;8.674;2024-02-15T14:26:37;20.60;94.90
18712;DHT22;9485;49.386;8.674;2024-02-15T14:31:58;20.60;94.50
18712;DHT22;9485;49.386;8.674;2024-02-15T14:37:36;20.60;94.80
18712;DHT22;9485;49.386;8.674;2024-02-15T14:42:58;20.60;94.90
18712;DHT22;9485;49.386;8.674;2024-02-15T14:48:19;20.60;94.30
18712;DHT22;9485;49.386;8.674;2024-02-15T14:53:40;20.60;94.70
18712;DHT22;9485;49.386;8.674;2024-02-15T14:59:02;20.60;94.90
18712;DHT22;9485;49.386;8.674;2024-02-15T15:04:23;20.60;94.50
18712;DHT22;9485;49.386;8.674;2024-02-15T15:09:45;20.50;94.90
18712;DHT22;9485;49.386;8.674;2024-02-15T15:15:25;20.50;95.00
18712;DHT22;9485;49.386;8.674;2024-02-15T15:20:46;20.40;94.40
18712;DHT22;9485;49.386;8.674;2024-02-15T15:26:07;20.40;94.80
18712;DHT22;9485;49.386;8.674;2024-02-15T15:31:31;20.30;94.70
18712;DHT22;9485;49.386;8.674;2024-02-15T15:36:54;20.30;94.10
18712;DHT22;9485;49.386;8.674;2024-02-15T15:42:16;20.20;94.70
18712;DHT22;9485;49.386;8.674;2024-02-15T15:47:39;20.20;94.60
18712;DHT22;9485;49.386;8.674;2024-02-15T15:53:01;20.00;94.10
18712;DHT22;9485;49.386;8.674;2024-02-15T15:58:22;20.00;94.50
18712;DHT22;9485;49.386;8.674;2024-02-15T16:03:48;19.80;94.70
18712;DHT22;9485;49.386;8.674;2024-02-15T16:09:09;19.80;93.70
18712;DHT22;9485;49.386;8.674;2024-02-15T16:14:30;19.70;94.80
18712;DHT22;9485;49.386;8.674;2024-02-15T16:19:52;19.70;94.90
18712;DHT22;9485;49.386;8.674;2024-02-15T16:25:13;19.60;94.40
18712;DHT22;9485;49.386;8.674;2024-02-15T16:30:34;19.50;94.80
18712;DHT22;9485;49.386;8.674;2024-02-15T16:35:56;19.50;94.60
18712;DHT22;9485;49.386;8.674;2024-02-15T16:41:17;19.50;94.40
18712;DHT22;9485;49.386;8.674;2024-02-15T16:46:39;19.40;94.50
18712;DHT22;9485;49.386;8.674;2024-02-15T16:52:01;19.20;94.00
18712;DHT22;9485;49.386;8.674;2024-02-15T16:57:22;19.10;93.80
18712;DHT22;9485;49.386;8.674;2024-02-15T17:02:42;19.00;94.30
18712;DHT22;9485;49.386;8.674;2024-02-15T17:08:05;18.90;94.30
18712;DHT22;9485;49.386;8.674;2024-02-15T17:13:26;18.70;93.80
18712;DHT22;9485;49.386;8.674;2024-02-15T17:18:46;18.60;94.10
18712;DHT22;9485;49.386;8.674;2024-02-15T17:24:09;18.40;94.20
18712;DHT22;9485;49.386;8.674;2024-02-15T17:29:30;18.30;94.00
18712;DHT22;9485;49.386;8.674;2024-02-15T17:34:50;18.20;94.60
18712;DHT22;9485;49.386;8.674;2024-02-15T17:40:12;18.10;94.70
18712;DHT22;9485;49.386;8.674;2024-02-15T17:45:33;18.10;94.60
18712;DHT22;9485;49.386;8.674;2024-02-15T17:50:55;18.00;94.80
18712;DHT22;9485;49.386;8.674;2024-02-15T17:56:17;18.00;95.00
18712;DHT22;9485;49.386;8.674;2024-02-15T18:01:37;17.90;95.30
18712;DHT22;9485;49.386;8.674;2024-02-15T18:06:58;17.90;96.10
18712;DHT22;9485;49.386;8.674;2024-02-15T18:12:20;18.20;96.60
18712;DHT22;9485;49.386;8.674;2024-02-15T18:17:42;18.40;96.30
18712;DHT22;9485;49.386;8.674;2024-02-15T18:23:04;18.50;96.60
18712;DHT22;9485;49.386;8.674;2024-02-15T18:28:29;18.60;96.50
18712;DHT22;9485;49.386;8.674;2024-02-15T18:33:49;18.80;95.80
18712;DHT22;9485;49.386;8.674;2024-02-15T18:39:13;18.90;95.80
18712;DHT22;9485;49.386;8.674;2024-02-15T18:44:35;18.90;95.50
18712;DHT22;9485;49.386;8.674;2024-02-15T18:49:56;18.90;95.20
18712;DHT22;9485;49.386;8.674;2024-02-15T18:55:18;18.90;95.80
18712;DHT22;9485;49.386;8.674;2024-02-15T19:00:40;19.00;96.00
18712;DHT22;9485;49.386;8.674;2024-02-15T19:06:05;19.10;95.50
18712;DHT22;9485;49.386;8.674;2024-02-15T19:11:28;19.10;95.60
18712;DHT22;9485;49.386;8.674;2024-02-15T19:16:50;19.10;95.60
18712;DHT22;9485;49.386;8.674;2024-02-15T19:22:11;19.20;95.00
18712;DHT22;9485;49.386;8.674;2024-02-15T19:27:32;19.20;95.40
18712;DHT22;9485;49.386;8.674;2024-02-15T19:32:54;19.20;95.80
18712;DHT22;9485;49.386;8.674;2024-02-15T19:38:14;19.20;95.40
18712;DHT22;9485;49.386;8.674;2024-02-15T19:43:35;19.30;95.80
18712;DHT22;9485;49.386;8.674;2024-02-15T19:48:57;19.30;95.60
18712;DHT22;9485;49.386;8.674;2024-02-15T19:54:18;19.30;95.10
18712;DHT22;9485;49.386;8.674;2024-02-15T19:59:40;19.30;95.50
18712;DHT22;9485;49.386;8.674;2024-02-15T20:05:02;19.30;95.50
18712;DHT22;9485;49.386;8.674;2024-02-15T20:10:25;19.30;95.10
18712;DHT22;9485;49.386;8.674;2024-02-15T20:15:45;19.30;95.40
18712;DHT22;9485;49.386;8.674;2024-02-15T20:21:07;19.40;95.40
18712;DHT22;9485;49.386;8.674;2024-02-15T20:26:31;19.30;94.90
18712;DHT22;9485;49.386;8.674;2024-02-15T20:31:51;19.30;95.30
18712;DHT22;9485;49.386;8.674;2024-02-15T20:37:13;19.30;95.40
18712;DHT22;9485;49.386;8.674;2024-02-15T20:42:34;19.20;95.00
18712;DHT22;9485;49.386;8.674;2024-02-15T20:47:59;19.20;95.40
18712;DHT22;9485;49.386;8.674;2024-02-15T20:53:22;19.20;94.90
18712;DHT22;9485;49.386;8.674;2024-02-15T20:58:44;19.20;94.80
18712;DHT22;9485;49.386;8.674;2024-02-15T21:04:05;19.20;95.00
18712;DHT22;9485;49.386;8.674;2024-02-15T21:09:30;19.10;94.90
18712;DHT22;9485;49.386;8.674;2024-02-15T21:14:51;19.10;94.20
18712;DHT22;9485;49.386;8.674;2024-02-15T21:20:13;18.90;94.60
18712;DHT22;9485;49.386;8.674;2024-02-15T21:25:37;18.80;94.60
18712;DHT22;9485;49.386;8.674;2024-02-15T21:30:58;18.80;94.60
18712;DHT22;9485;49.386;8.674;2024-02-15T21:36:19;18.80;95.20
18712;DHT22;9485;49.386;8.674;2024-02-15T21:41:41;18.80;95.20
18712;DHT22;9485;49.386;8.674;2024-02-15T21:47:02;18.80;94.80
18712;DHT22;9485;49.386;8.674;2024-02-15T21:52:23;18.90;95.00
18712;DHT22;9485;49.386;8.674;2024-02-15T21:57:44;18.80;95.10
18712;DHT22;9485;49.386;8.674;2024-02-15T22:03:06;18.80;94.70
18712;DHT22;9485;49.386;8.674;2024-02-15T22:08:31;18.80;94.60
18712;DHT22;9485;49.386;8.674;2024-02-15T22:13:53;18.70;94.90
18712;DHT22;9485;49.386;8.674;2024-02-15T22:19:14;18.60;94.60
18712;DHT22;9485;49.386;8.674;2024-02-15T22:24:35;18.60;94.90
18712;DHT22;9485;49.386;8.674;2024-02-15T22:29:56;18.60;95.20
18712;DHT22;9485;49.386;8.674;2024-02-15T22:35:17;18.60;94.70
18712;DHT22;9485;49.386;8.674;2024-02-15T22:40:37;18.60;95.10
18712;DHT22;9485;49.386;8.674;2024-02-15T22:46:03;18.50;95.10
18712;DHT22;9485;49.386;8.674;2024-02-15T22:51:24;18.60;94.60
18712;DHT22;9485;49.386;8.674;2024-02-15T22:56:44;18.50;95.00
18712;DHT22;9485;49.386;8.674;2024-02-15T23:02:06;18.50;94.80
18712;DHT22;9485;49.386;8.674;2024-02-15T23:07:27;18.50;94.50
18712;DHT22;9485;49.386;8.674;2024-02-15T23:12:47;18.40;94.70
18712;DHT22;9485;49.386;8.674;2024-02-15T23:18:09;18.40;94.60
18712;DHT22;9485;49.386;8.674;2024-02-15T23:23:30;18.30;94.30
18712;DHT22;9485;49.386;8.674;2024-02-15T23:28:50;18.20;94.60
18712;DHT22;9485;49.386;8.674;2024-02-15T23:34:12;18.10;94.60
18712;DHT22;9485;49.386;8.674;2024-02-15T23:39:33;18.10;94.30
18712;DHT22;9485;49.386;8.674;2024-02-15T23:45:26;18.00;94.70
18712;DHT22;9485;49.386;8.674;2024-02-15T23:50:53;17.90;94.50
18712;DHT22;9485;49.386;8.674;2024-02-15T23:56:13;17.80;94.10
